Time;durP1;ratioP1;P1;durP2;ratioP2;P2;SDS_P1;SDS_P2;PMS_P1;PMS_P2;Temp;Humidity;BMP_temperature;BMP_pressure;BME280_temperature;BME280_humidity;BME280_pressure;Samples;Min_cycle;Max_cycle;Signal;HPM_P1;HPM_P2
2022/05/19 00:02:00;;;;;;;0.40;0.40;;;16.10;99.90;;;;;;4995976;28;20193;-79
2022/05/19 00:04:27;;;;;;;0.40;0.40;;;16.10;37.80;;;;;;4996360;28;20244;-77
2022/05/19 00:06:53;;;;;;;0.37;0.37;;;15.90;99.90;;;;;;4996164;28;20181;-77
2022/05/19 00:09:19;;;;;;;0.30;0.30;;;15.80;1.00;;;;;;4994575;28;20227;-77
2022/05/19 00:11:46;;;;;;;0.30;0.30;;;15.70;1.00;;;;;;4995224;28;20228;-77
2022/05/19 00:14:12;;;;;;;0.30;0.30;;;15.60;93.30;;;;;;4994953;28;20177;-77
2022/05/19 00:16:39;;;;;;;0.30;0.30;;;15.60;99.90;;;;;;4994952;28;20259;-77
2022/05/19 00:19:05;;;;;;;0.30;0.30;;;15.50;1.00;;;;;;4994008;28;20189;-77
2022/05/19 00:21:31;;;;;;;0.40;0.40;;;15.50;39.40;;;;;;4994692;28;20193;-78
2022/05/19 00:23:56;;;;;;;0.40;0.40;;;15.50;99.90;;;;;;4994875;28;20669;-78
2022/05/19 00:26:22;;;;;;;0.47;0.47;;;15.50;1.00;;;;;;4994245;28;20169;-77
2022/05/19 00:28:47;;;;;;;0.40;0.40;;;15.50;99.90;;;;;;4994423;28;20248;-78
2022/05/19 00:31:13;;;;;;;0.30;0.30;;;15.40;99.90;;;;;;4994314;28;20283;-77
2022/05/19 00:33:39;;;;;;;0.40;0.40;;;15.40;99.90;;;;;;4994500;28;20215;-78
2022/05/19 00:36:12;;;;;;;0.37;0.37;;;15.40;99.90;;;;;;4994298;28;20177;-77
2022/05/19 00:38:38;;;;;;;0.40;0.40;;;15.30;99.90;;;;;;4994434;28;20177;-76
2022/05/19 00:41:04;;;;;;;0.40;0.40;;;15.30;99.90;;;;;;4993625;28;20272;-77
2022/05/19 00:43:33;;;;;;;0.40;0.40;;;15.30;99.90;;;;;;4994063;28;20262;-76
2022/05/19 00:46:10;;;;;;;0.30;0.30;;;15.30;99.90;;;;;;4993957;28;20188;-76
2022/05/19 00:49:04;;;;;;;0.30;0.30;;;15.30;99.90;;;;;;4994076;28;20209;-77
2022/05/19 00:51:55;;;;;;;0.40;0.40;;;15.30;98.30;;;;;;4993452;28;20678;-76
2022/05/19 00:54:27;;;;;;;0.37;0.37;;;15.30;1.00;;;;;;4995109;28;20181;-77
2022/05/19 00:57:07;;;;;;;0.40;0.40;;;15.30;2.90;;;;;;4996286;28;20243;-76
2022/05/19 00:59:39;;;;;;;0.30;0.30;;;15.30;1.00;;;;;;4996511;28;20173;-77
2022/05/19 01:02:09;;;;;;;0.40;0.40;;;15.20;1.00;;;;;;4995374;28;20196;-76
2022/05/19 01:04:39;;;;;;;0.50;0.50;;;15.10;1.00;;;;;;5006946;28;20611;-76
2022/05/19 01:07:09;;;;;;;0.40;0.40;;;15.10;1.00;;;;;;5010054;28;20184;-75
2022/05/19 01:09:37;;;;;;;0.30;0.30;;;15.00;99.90;;;;;;5008936;28;20201;-76
2022/05/19 01:12:04;;;;;;;0.40;0.40;;;15.00;99.90;;;;;;5011461;28;20180;-76
2022/05/19 01:14:31;;;;;;;0.40;0.40;;;14.90;1.00;;;;;;4996476;28;20169;-78
2022/05/19 01:16:56;;;;;;;0.50;0.50;;;14.90;99.90;;;;;;4993773;28;20200;-77
2022/05/19 01:19:35;;;;;;;0.40;0.40;;;14.90;1.00;;;;;;4993099;28;20654;-77
2022/05/19 01:22:15;;;;;;;0.30;0.30;;;14.90;1.00;;;;;;4993074;28;20708;-77
2022/05/19 01:24:54;;;;;;;0.30;0.30;;;14.90;1.00;;;;;;4993626;28;20216;-77
2022/05/19 01:27:19;;;;;;;0.40;0.40;;;14.80;1.00;;;;;;4993132;28;20538;-76
2022/05/19 01:29:45;;;;;;;0.40;0.40;;;14.80;1.00;;;;;;4992849;28;20181;-76
2022/05/19 01:32:27;;;;;;;0.40;0.40;;;14.80;1.00;;;;;;4993037;28;20201;-76
2022/05/19 01:34:53;;;;;;;0.30;0.30;;;14.80;99.90;;;;;;4993213;28;20181;-76
2022/05/19 01:37:19;;;;;;;0.40;0.40;;;14.80;53.00;;;;;;4992744;28;20489;-77
2022/05/19 01:39:50;;;;;;;0.40;0.40;;;14.70;99.90;;;;;;4991597;28;20673;-76
2022/05/19 01:42:39;;;;;;;0.40;0.40;;;14.70;20.40;;;;;;4992869;28;20208;-77
2022/05/19 01:45:28;;;;;;;0.40;0.40;;;14.70;1.00;;;;;;4992883;28;20181;-77
2022/05/19 01:48:28;;;;;;;0.40;0.40;;;14.70;32.10;;;;;;4992967;28;20264;-76
2022/05/19 01:50:59;;;;;;;0.40;0.40;;;14.70;1.00;;;;;;4978704;28;20251;-76
2022/05/19 01:53:30;;;;;;;0.40;0.40;;;14.60;1.00;;;;;;4992684;28;20181;-77
2022/05/19 01:56:24;;;;;;;0.37;0.37;;;14.50;1.00;;;;;;4993039;28;20200;-76
2022/05/19 01:58:59;;;;;;;0.30;0.30;;;14.50;1.00;;;;;;4990436;28;20613;-78
2022/05/19 02:01:27;;;;;;;0.40;0.40;;;14.50;99.90;;;;;;4992857;28;20256;-77
2022/05/19 02:04:10;;;;;;;0.30;0.30;;;14.40;99.90;;;;;;4992565;28;20510;-77
2022/05/19 02:06:44;;;;;;;0.40;0.40;;;14.40;80.80;;;;;;4992612;28;20199;-76
2022/05/19 02:09:18;;;;;;;0.30;0.30;;;14.30;1.00;;;;;;4992289;28;20227;-78
2022/05/19 02:11:56;;;;;;;0.40;0.40;;;14.30;1.00;;;;;;4992590;28;20225;-78
2022/05/19 02:14:33;;;;;;;0.43;0.43;;;14.30;1.00;;;;;;4993049;28;20177;-76
2022/05/19 02:17:01;;;;;;;0.40;0.40;;;14.20;1.00;;;;;;4992945;28;20177;-77
2022/05/19 02:19:35;;;;;;;0.50;0.50;;;14.20;1.00;;;;;;4991441;28;20284;-77
2022/05/19 02:22:02;;;;;;;0.30;0.30;;;14.10;99.90;;;;;;4993389;28;20200;-77
2022/05/19 02:24:30;;;;;;;0.40;0.40;;;14.00;99.90;;;;;;4993181;28;20232;-77
2022/05/19 02:26:56;;;;;;;0.40;0.40;;;14.00;99.90;;;;;;4992536;28;20181;-77
2022/05/19 02:29:26;;;;;;;0.50;0.50;;;13.90;99.90;;;;;;4992129;28;20213;-76
2022/05/19 02:31:52;;;;;;;0.40;0.40;;;13.90;1.00;;;;;;4992520;28;20200;-77
2022/05/19 02:34:17;;;;;;;0.50;0.50;;;13.90;1.00;;;;;;4992592;28;20181;-76
2022/05/19 02:36:43;;;;;;;0.40;0.40;;;13.80;99.90;;;;;;4992294;28;20179;-77
2022/05/19 02:39:10;;;;;;;0.30;0.30;;;13.70;99.90;;;;;;4991696;28;20256;-76
2022/05/19 02:41:36;;;;;;;0.40;0.40;;;13.70;1.00;;;;;;4992329;28;20259;-77
2022/05/19 02:44:02;;;;;;;0.40;0.40;;;13.70;1.00;;;;;;4992173;28;20629;-76
2022/05/19 02:46:28;;;;;;;0.43;0.43;;;13.70;1.00;;;;;;4992228;28;20293;-77
2022/05/19 02:49:01;;;;;;;0.60;0.60;;;13.70;1.00;;;;;;4991737;28;20237;-77
2022/05/19 02:51:26;;;;;;;0.40;0.40;;;13.70;1.00;;;;;;4997983;28;20192;-77
2022/05/19 02:53:52;;;;;;;0.50;0.50;;;13.70;1.00;;;;;;4998301;28;20223;-76
2022/05/19 02:56:17;;;;;;;0.40;0.40;;;13.60;99.90;;;;;;4998761;28;20177;-77
2022/05/19 02:58:43;;;;;;;0.40;0.40;;;13.70;1.00;;;;;;4998587;28;20669;-77
2022/05/19 03:01:08;;;;;;;0.40;0.40;;;13.60;1.00;;;;;;4998093;28;20225;-76
2022/05/19 03:03:34;;;;;;;0.60;0.60;;;13.60;1.00;;;;;;4998520;28;20493;-76
2022/05/19 03:05:59;;;;;;;0.30;0.30;;;13.50;1.00;;;;;;4998157;28;20181;-77
2022/05/19 03:08:25;;;;;;;0.40;0.40;;;13.50;99.90;;;;;;4998127;28;20227;-77
2022/05/19 03:10:51;;;;;;;0.40;0.40;;;13.50;99.90;;;;;;4998049;28;20197;-77
2022/05/19 03:13:20;;;;;;;0.40;0.40;;;13.50;99.90;;;;;;4998304;28;20181;-76
2022/05/19 03:15:46;;;;;;;0.40;0.40;;;13.40;1.00;;;;;;4998323;28;20181;-76
2022/05/19 03:18:12;;;;;;;0.40;0.40;;;13.30;1.00;;;;;;4998216;28;20192;-77
2022/05/19 03:20:38;;;;;;;0.60;0.60;;;13.30;47.30;;;;;;4998061;28;20259;-78
2022/05/19 03:23:03;;;;;;;0.30;0.30;;;13.30;99.90;;;;;;4998963;28;20181;-77
2022/05/19 03:25:29;;;;;;;0.40;0.40;;;13.20;99.90;;;;;;4999063;28;20184;-77
2022/05/19 03:27:55;;;;;;;0.43;0.43;;;13.20;1.00;;;;;;4999210;28;20304;-77
2022/05/19 03:30:20;;;;;;;0.60;0.60;;;13.20;1.00;;;;;;4998530;28;20180;-77
2022/05/19 03:32:46;;;;;;;0.40;0.40;;;13.30;1.00;;;;;;4998792;28;20205;-77
2022/05/19 03:35:14;;;;;;;0.30;0.30;;;13.10;1.00;;;;;;4998866;28;20526;-77
2022/05/19 03:37:40;;;;;;;0.40;0.40;;;13.10;1.00;;;;;;4999080;28;20185;-77
2022/05/19 03:40:06;;;;;;;0.40;0.40;;;13.10;1.00;;;;;;4998985;28;20173;-77
2022/05/19 03:42:32;;;;;;;0.40;0.40;;;13.00;1.00;;;;;;4998969;28;20292;-77
2022/05/19 03:44:57;;;;;;;0.50;0.50;;;13.00;1.00;;;;;;4999224;28;20293;-77
2022/05/19 03:47:23;;;;;;;0.40;0.40;;;13.00;1.00;;;;;;4998226;28;20180;-77
2022/05/19 03:49:49;;;;;;;0.40;0.40;;;13.00;34.40;;;;;;4997518;28;20193;-76
2022/05/19 03:52:14;;;;;;;0.40;0.40;;;13.00;99.90;;;;;;4998173;28;20201;-76
2022/05/19 03:54:40;;;;;;;0.40;0.40;;;12.90;99.90;;;;;;4998440;28;20177;-76
2022/05/19 03:57:06;;;;;;;0.50;0.50;;;12.90;99.90;;;;;;4998069;28;20180;-76
2022/05/19 03:59:32;;;;;;;0.50;0.50;;;12.90;1.00;;;;;;4997570;28;20268;-77
2022/05/19 04:02:02;;;;;;;0.50;0.50;;;13.00;99.90;;;;;;4995412;28;20193;-77
2022/05/19 04:04:28;;;;;;;0.50;0.50;;;13.00;99.90;;;;;;4994718;28;20979;-77
2022/05/19 04:06:53;;;;;;;0.50;0.50;;;13.00;99.90;;;;;;4993795;28;20203;-76
2022/05/19 04:09:19;;;;;;;0.50;0.50;;;13.10;99.90;;;;;;4994394;28;20209;-78
2022/05/19 04:11:45;;;;;;;0.50;0.50;;;13.10;99.90;;;;;;4995409;28;20255;-78
2022/05/19 04:14:11;;;;;;;0.50;0.50;;;13.10;99.90;;;;;;4995284;28;20185;-77
2022/05/19 04:16:37;;;;;;;0.40;0.40;;;13.10;99.90;;;;;;4995264;28;20177;-78
2022/05/19 04:19:04;;;;;;;0.40;0.40;;;13.20;1.00;;;;;;4994539;28;20335;-78
2022/05/19 04:21:30;;;;;;;0.50;0.50;;;13.20;1.00;;;;;;4994909;28;20608;-77
2022/05/19 04:23:56;;;;;;;0.50;0.50;;;13.20;1.00;;;;;;4994852;28;20177;-77
2022/05/19 04:26:23;;;;;;;0.43;0.43;;;13.30;1.00;;;;;;4994622;28;20662;-77
2022/05/19 04:28:48;;;;;;;0.40;0.40;;;13.40;1.00;;;;;;4994376;28;20311;-76
2022/05/19 04:31:14;;;;;;;0.40;0.40;;;13.50;1.00;;;;;;4994045;28;20276;-80
2022/05/19 04:33:39;;;;;;;0.40;0.40;;;13.60;1.00;;;;;;4994557;28;20299;-78
2022/05/19 04:36:05;;;;;;;0.40;0.40;;;13.70;1.00;;;;;;4994867;28;20247;-78
2022/05/19 04:38:31;;;;;;;0.50;0.50;;;13.60;1.00;;;;;;4994144;28;20177;-77
2022/05/19 04:41:01;;;;;;;0.40;0.40;;;13.70;1.00;;;;;;4993678;28;20216;-77
2022/05/19 04:43:26;;;;;;;0.40;0.40;;;13.70;1.00;;;;;;4994246;28;20261;-78
2022/05/19 04:45:54;;;;;;;0.40;0.40;;;13.80;1.00;;;;;;4994821;28;20200;-81
2022/05/19 04:48:20;;;;;;;0.40;0.40;;;13.80;1.00;;;;;;4994542;28;20304;-79
2022/05/19 04:50:50;;;;;;;0.40;0.40;;;13.90;1.00;;;;;;4994662;28;20207;-77
2022/05/19 04:53:16;;;;;;;0.40;0.40;;;14.10;99.90;;;;;;4995635;28;20189;-77
2022/05/19 04:55:41;;;;;;;0.30;0.30;;;14.10;99.90;;;;;;4995384;28;20232;-76
2022/05/19 04:58:07;;;;;;;0.40;0.40;;;14.10;99.90;;;;;;4993922;28;20201;-76
2022/05/19 05:00:34;;;;;;;0.30;0.30;;;14.30;99.90;;;;;;4993105;28;20726;-77
2022/05/19 05:03:00;;;;;;;0.40;0.40;;;14.50;99.90;;;;;;4993691;28;20630;-76
2022/05/19 05:05:26;;;;;;;0.50;0.50;;;14.80;48.80;;;;;;4993779;28;20696;-76
2022/05/19 05:07:51;;;;;;;0.43;0.43;;;15.00;99.90;;;;;;4993605;28;20217;-76
2022/05/19 05:10:17;;;;;;;0.40;0.40;;;15.30;99.90;;;;;;4993205;28;20177;-77
2022/05/19 05:12:42;;;;;;;0.40;0.40;;;15.50;99.90;;;;;;4993592;28;20232;-76
2022/05/19 05:15:09;;;;;;;0.30;0.30;;;15.60;99.90;;;;;;4992940;28;20241;-76
2022/05/19 05:17:35;;;;;;;0.30;0.30;;;15.70;99.90;;;;;;4993242;28;20252;-76
2022/05/19 05:20:02;;;;;;;0.30;0.30;;;15.90;1.00;;;;;;4993029;28;20623;-77
2022/05/19 05:22:30;;;;;;;0.30;0.30;;;16.20;99.90;;;;;;4992057;28;20201;-76
2022/05/19 05:24:56;;;;;;;0.23;0.23;;;16.40;99.90;;;;;;4993370;28;20210;-77
2022/05/19 05:27:21;;;;;;;0.30;0.30;;;16.60;1.00;;;;;;4993352;28;20169;-77
2022/05/19 05:29:47;;;;;;;0.37;0.37;;;16.80;1.00;;;;;;4992969;28;20181;-76
2022/05/19 05:32:12;;;;;;;0.30;0.30;;;16.90;99.90;;;;;;4993071;28;20276;-77
2022/05/19 05:34:38;;;;;;;0.40;0.40;;;16.90;1.00;;;;;;4992929;28;20650;-76
2022/05/19 05:37:04;;;;;;;0.40;0.40;;;16.80;1.00;;;;;;4993183;28;20680;-76
2022/05/19 05:39:30;;;;;;;0.40;0.40;;;16.50;99.90;;;;;;4990159;28;20629;-77
2022/05/19 05:41:55;;;;;;;0.30;0.30;;;16.60;1.00;;;;;;4992227;28;20193;-77
2022/05/19 05:44:21;;;;;;;0.30;0.30;;;16.80;60.30;;;;;;4989080;28;20177;-76
2022/05/19 05:46:46;;;;;;;0.30;0.30;;;17.00;1.00;;;;;;4992558;28;20174;-76
2022/05/19 05:49:12;;;;;;;0.50;0.50;;;17.00;1.00;;;;;;4991805;28;20268;-77
2022/05/19 05:51:37;;;;;;;0.40;0.40;;;17.10;99.90;;;;;;4989484;28;20251;-77
2022/05/19 05:54:03;;;;;;;0.30;0.30;;;17.10;99.90;;;;;;4986548;28;20192;-76
2022/05/19 05:56:29;;;;;;;0.37;0.37;;;17.10;99.90;;;;;;4991625;28;20192;-77
2022/05/19 05:58:54;;;;;;;0.40;0.40;;;17.20;99.90;;;;;;4985160;28;20181;-77
2022/05/19 06:01:23;;;;;;;0.30;0.30;;;17.50;1.00;;;;;;4992408;28;20224;-78
2022/05/19 06:03:49;;;;;;;0.30;0.30;;;17.60;1.00;;;;;;4977008;28;20264;-77
2022/05/19 06:06:15;;;;;;;0.40;0.40;;;17.80;99.90;;;;;;4989863;28;20265;-77
2022/05/19 06:08:42;;;;;;;0.40;0.40;;;17.80;99.90;;;;;;4989404;28;20221;-77
2022/05/19 06:11:07;;;;;;;0.40;0.40;;;17.80;99.90;;;;;;4991960;28;20204;-78
2022/05/19 06:13:33;;;;;;;0.33;0.33;;;17.70;21.30;;;;;;4993109;28;20177;-77
2022/05/19 06:15:59;;;;;;;0.30;0.30;;;17.90;99.90;;;;;;4987093;28;20184;-78
2022/05/19 06:18:27;;;;;;;0.47;0.47;;;17.90;1.00;;;;;;4997858;28;20185;-77
2022/05/19 06:20:53;;;;;;;0.30;0.30;;;17.90;1.00;;;;;;4991101;28;20213;-77
2022/05/19 06:23:20;;;;;;;0.30;0.30;;;17.90;1.00;;;;;;4988174;28;20248;-74
2022/05/19 06:25:46;;;;;;;0.40;0.40;;;18.00;1.00;;;;;;4991545;28;20180;-75
2022/05/19 06:28:12;;;;;;;0.40;0.40;;;18.00;1.00;;;;;;4991812;28;20209;-75
2022/05/19 06:30:38;;;;;;;0.30;0.30;;;18.00;1.00;;;;;;4991074;28;20173;-75
2022/05/19 06:33:05;;;;;;;0.43;0.43;;;18.00;1.00;;;;;;4987592;28;20281;-76
2022/05/19 06:35:33;;;;;;;0.30;0.30;;;18.20;1.00;;;;;;4991976;28;20522;-77
2022/05/19 06:37:59;;;;;;;0.30;0.30;;;18.30;1.00;;;;;;4988853;28;20293;-75
2022/05/19 06:40:26;;;;;;;0.30;0.30;;;18.20;1.00;;;;;;4987596;28;20608;-78
2022/05/19 06:42:53;;;;;;;0.40;0.40;;;18.30;1.00;;;;;;4989152;28;20189;-78
2022/05/19 06:45:22;;;;;;;0.30;0.30;;;18.40;1.00;;;;;;4991772;28;20185;-76
2022/05/19 06:47:48;;;;;;;0.30;0.30;;;18.70;1.00;;;;;;4991215;28;20209;-73
2022/05/19 06:50:14;;;;;;;0.30;0.30;;;18.90;1.00;;;;;;4990811;28;20229;-73
2022/05/19 06:52:57;;;;;;;0.30;0.30;;;19.10;1.00;;;;;;4990967;28;20208;-73
2022/05/19 06:55:23;;;;;;;0.30;0.30;;;19.30;1.00;;;;;;4987439;28;20176;-75
2022/05/19 06:57:49;;;;;;;0.30;0.30;;;19.30;1.00;;;;;;4990912;28;20550;-74
2022/05/19 07:00:18;;;;;;;0.40;0.40;;;19.50;1.00;;;;;;4990712;28;20173;-74
2022/05/19 07:02:46;;;;;;;0.40;0.40;;;19.60;1.00;;;;;;4991039;28;20280;-74
2022/05/19 07:05:12;;;;;;;0.37;0.37;;;19.50;1.00;;;;;;4991539;28;20204;-77
2022/05/19 07:07:38;;;;;;;0.30;0.30;;;19.70;1.00;;;;;;4991152;28;20682;-76
2022/05/19 07:10:05;;;;;;;0.20;0.20;;;19.80;1.00;;;;;;4990899;28;20169;-74
2022/05/19 07:12:31;;;;;;;0.30;0.30;;;20.00;1.00;;;;;;4989373;28;20209;-76
2022/05/19 07:14:56;;;;;;;0.40;0.40;;;20.00;1.00;;;;;;4989451;28;20718;-75
2022/05/19 07:17:22;;;;;;;0.30;0.30;;;20.10;1.00;;;;;;4991517;28;20217;-74
2022/05/19 07:22:33;;;;;;;0.30;0.30;;;20.50;1.00;;;;;;4989227;28;20630;-74
2022/05/19 07:25:00;;;;;;;0.30;0.30;;;20.80;1.00;;;;;;4991329;28;20197;-75
2022/05/19 07:27:26;;;;;;;0.40;0.40;;;21.00;1.00;;;;;;4990508;28;20251;-74
2022/05/19 07:29:52;;;;;;;0.30;0.30;;;21.10;1.00;;;;;;4990728;28;20552;-76
2022/05/19 07:32:17;;;;;;;0.30;0.30;;;21.20;1.00;;;;;;4991172;28;20201;-75
2022/05/19 07:34:43;;;;;;;0.37;0.37;;;21.20;1.00;;;;;;4985746;28;20192;-75
2022/05/19 07:37:11;;;;;;;0.40;0.40;;;21.20;1.00;;;;;;4983794;28;20184;-74
2022/05/19 07:39:37;;;;;;;0.30;0.30;;;21.30;1.00;;;;;;4989467;28;20273;-76
2022/05/19 07:42:03;;;;;;;0.30;0.30;;;21.60;1.00;;;;;;4985375;28;20292;-75
2022/05/19 07:44:29;;;;;;;0.30;0.30;;;21.70;1.00;;;;;;4985266;28;20887;-75
2022/05/19 07:46:55;;;;;;;0.40;0.40;;;22.10;1.00;;;;;;4992676;28;20231;-76
2022/05/19 07:49:21;;;;;;;0.20;0.20;;;22.60;1.00;;;;;;4990261;28;20235;-76
2022/05/19 07:51:47;;;;;;;0.30;0.30;;;23.30;1.00;;;;;;4988209;28;20296;-75
2022/05/19 07:54:19;;;;;;;0.40;0.40;;;24.20;1.00;;;;;;4991279;28;20900;-75
2022/05/19 07:56:45;;;;;;;0.40;0.40;;;24.60;1.00;;;;;;4994399;28;20713;-75
2022/05/19 07:59:11;;;;;;;0.40;0.40;;;24.90;1.00;;;;;;4994787;28;20262;-75
2022/05/19 08:01:39;;;;;;;0.40;0.40;;;24.90;1.00;;;;;;4992978;28;20197;-72
2022/05/19 08:04:06;;;;;;;0.40;0.40;;;25.10;1.00;;;;;;4990193;28;20327;-74
2022/05/19 08:06:33;;;;;;;0.27;0.27;;;25.60;1.00;;;;;;4994355;28;20181;-76
2022/05/19 08:08:59;;;;;;;0.50;0.50;;;25.90;1.00;;;;;;4993871;28;20678;-75
2022/05/19 08:11:26;;;;;;;0.30;0.30;;;26.20;1.00;;;;;;4993967;28;20201;-75
2022/05/19 08:16:36;;;;;;;0.30;0.30;;;27.00;1.00;;;;;;4988358;28;20181;-75
2022/05/19 08:19:03;;;;;;;0.40;0.40;;;27.30;1.00;;;;;;4987759;28;20192;-76
2022/05/19 08:21:31;;;;;;;0.40;0.40;;;27.40;1.00;;;;;;5028910;22;20627;-82
2022/05/19 08:23:57;;;;;;;0.50;0.50;;;27.30;1.00;;;;;;5020220;28;20239;-80
2022/05/19 08:26:23;;;;;;;0.70;0.70;;;27.30;1.00;;;;;;5020122;28;20611;-81
2022/05/19 08:28:50;;;;;;;0.60;0.60;;;27.30;1.00;;;;;;5019801;28;20212;-83
2022/05/19 08:31:20;;;;;;;0.50;0.50;;;27.50;1.00;;;;;;5020576;28;20460;-80
2022/05/19 08:33:48;;;;;;;0.50;0.50;;;27.80;1.00;;;;;;5022542;28;20550;-79
2022/05/19 08:36:14;;;;;;;0.60;0.60;;;27.60;1.00;;;;;;5022374;28;20189;-80
2022/05/19 08:38:41;;;;;;;0.40;0.40;;;27.80;1.00;;;;;;5019987;28;20185;-80
2022/05/19 08:41:17;;;;;;;0.40;0.40;;;28.00;1.00;;;;;;5020372;28;20467;-81
2022/05/19 08:43:52;;;;;;;0.50;0.50;;;28.00;1.00;;;;;;5023900;28;20188;-81
2022/05/19 08:46:25;;;;;;;0.47;0.47;;;28.40;1.00;;;;;;5021007;28;20664;-81
2022/05/19 08:48:54;;;;;;;0.40;0.40;;;28.50;1.00;;;;;;5026843;28;20208;-82
2022/05/19 08:51:25;;;;;;;0.50;0.50;;;28.50;1.00;;;;;;5031291;28;20188;-77
2022/05/19 08:53:54;;;;;;;0.50;0.50;;;28.70;1.00;;;;;;5017590;28;20215;-80
2022/05/19 08:56:23;;;;;;;0.50;0.50;;;28.90;1.00;;;;;;5017388;28;20184;-78
2022/05/19 08:59:10;;;;;;;0.50;0.50;;;29.00;1.00;;;;;;5018135;28;20251;-79
2022/05/19 09:01:56;;;;;;;0.50;0.50;;;29.50;1.00;;;;;;5016700;28;20681;-78
2022/05/19 09:04:39;;;;;;;0.50;0.50;;;29.80;1.00;;;;;;5021207;28;20184;-81
2022/05/19 09:07:58;;;;;;;0.57;0.57;;;29.70;1.00;;;;;;5023945;28;20164;-78
2022/05/19 09:10:29;;;;;;;0.50;0.50;;;29.70;1.00;;;;;;5030636;28;20212;-77
2022/05/19 09:13:10;;;;;;;0.50;0.50;;;29.60;1.00;;;;;;5030783;28;20160;-77
2022/05/19 09:15:37;;;;;;;0.60;0.60;;;29.90;1.00;;;;;;5030475;28;20180;-78
2022/05/19 09:18:03;;;;;;;0.50;0.50;;;30.30;1.00;;;;;;5019707;28;20176;-82
2022/05/19 09:20:37;;;;;;;0.50;0.50;;;30.50;1.00;;;;;;5016225;28;20283;-79
2022/05/19 09:23:04;;;;;;;0.60;0.60;;;30.60;1.00;;;;;;5018171;28;20654;-82
2022/05/19 09:25:30;;;;;;;0.60;0.60;;;30.80;1.00;;;;;;5018740;28;20303;-78
2022/05/19 09:27:59;;;;;;;0.50;0.50;;;30.80;1.00;;;;;;5019207;28;20227;-81
2022/05/19 09:30:36;;;;;;;0.47;0.47;;;31.10;1.00;;;;;;5016541;28;20184;-79
2022/05/19 09:33:07;;;;;;;0.40;0.40;;;30.90;1.00;;;;;;4999420;28;20177;-79
2022/05/19 09:35:45;;;;;;;0.50;0.50;;;30.70;1.00;;;;;;4998986;28;20627;-81
2022/05/19 09:38:30;;;;;;;0.60;0.60;;;31.10;1.00;;;;;;4999756;28;20276;-81
2022/05/19 09:41:08;;;;;;;0.50;0.50;;;31.10;1.00;;;;;;4999566;28;20236;-80
2022/05/19 09:43:37;;;;;;;0.50;0.50;;;31.10;1.00;;;;;;4999210;28;20181;-81
2022/05/19 09:46:11;;;;;;;0.40;0.40;;;31.00;1.00;;;;;;4999417;28;20177;-80
2022/05/19 09:48:45;;;;;;;0.60;0.60;;;30.90;1.00;;;;;;5007185;28;20220;-80
2022/05/19 09:51:15;;;;;;;0.47;0.47;;;31.10;1.00;;;;;;5017625;28;20283;-79
2022/05/19 09:53:46;;;;;;;0.50;0.50;;;30.70;1.00;;;;;;5013085;28;20181;-77
2022/05/19 09:56:15;;;;;;;0.60;0.60;;;30.80;1.00;;;;;;5014103;28;20192;-77
2022/05/19 09:58:49;;;;;;;0.60;0.60;;;30.70;1.00;;;;;;5015408;28;20181;-78
2022/05/19 10:01:38;;;;;;;0.50;0.50;;;30.70;1.00;;;;;;5017160;28;20204;-79
2022/05/19 10:04:26;;;;;;;0.50;0.50;;;30.50;1.00;;;;;;5022724;28;20183;-78
2022/05/19 10:06:55;;;;;;;0.60;0.60;;;30.50;1.00;;;;;;5016766;28;20183;-79
2022/05/19 10:09:32;;;;;;;0.50;0.50;;;30.60;1.00;;;;;;5016093;28;20208;-78
2022/05/19 10:12:09;;;;;;;0.63;0.63;;;30.80;1.00;;;;;;5010813;28;20204;-78
2022/05/19 10:14:35;;;;;;;0.57;0.57;;;31.00;1.00;;;;;;5011346;28;20184;-77
2022/05/19 10:17:35;;;;;;;0.50;0.50;;;31.00;1.00;;;;;;5011024;28;20210;-76
2022/05/19 10:20:22;;;;;;;0.60;0.60;;;31.50;1.00;;;;;;5006348;28;20177;-76
2022/05/19 10:23:18;;;;;;;0.50;0.50;;;31.60;1.00;;;;;;5014823;28;20204;-77
2022/05/19 10:25:55;;;;;;;0.60;0.60;;;31.60;1.00;;;;;;5014001;28;20263;-79
2022/05/19 10:31:49;;;;;;;0.60;0.60;;;32.40;1.00;;;;;;5014449;28;20210;-79
2022/05/19 10:34:28;;;;;;;0.45;0.45;;;32.40;1.00;;;;;;5014908;28;20177;-79
2022/05/19 10:37:13;;;;;;;0.55;0.55;;;32.70;1.00;;;;;;5011306;28;20800;-79
2022/05/19 10:40:10;;;;;;;0.30;0.30;;;33.00;1.00;;;;;;5015604;28;20183;-79
2022/05/19 10:43:03;;;;;;;0.35;0.35;;;33.30;1.00;;;;;;5008266;28;20250;-77
2022/05/19 10:45:40;;;;;;;0.30;0.30;;;33.60;1.00;;;;;;5011914;28;20176;-76
2022/05/19 10:48:15;;;;;;;0.50;0.50;;;33.90;1.00;;;;;;5008768;28;20254;-77
2022/05/19 10:51:01;;;;;;;0.43;0.43;;;33.90;1.00;;;;;;5013675;28;20176;-78
2022/05/19 10:53:35;;;;;;;0.50;0.50;;;33.30;1.00;;;;;;5016363;28;20196;-79
2022/05/19 10:56:01;;;;;;;0.40;0.40;;;32.70;1.00;;;;;;5003256;28;20640;-76
2022/05/19 10:58:54;;;;;;;0.35;0.35;;;33.00;1.00;;;;;;5010092;28;20173;-78
2022/05/19 11:01:31;;;;;;;0.50;0.50;;;33.50;1.00;;;;;;5013057;28;20192;-77
2022/05/19 11:04:15;;;;;;;0.40;0.40;;;33.40;1.00;;;;;;5011339;28;20216;-76
2022/05/19 11:07:11;;;;;;;0.30;0.30;;;33.60;1.00;;;;;;5011426;28;20179;-78
2022/05/19 11:10:08;;;;;;;0.30;0.30;;;33.80;1.00;;;;;;5004363;28;20217;-78
2022/05/19 11:12:51;;;;;;;0.30;0.30;;;34.40;1.00;;;;;;5013922;28;20201;-77
2022/05/19 11:15:42;;;;;;;0.15;0.15;;;34.90;1.00;;;;;;5017902;28;20177;-80
2022/05/19 11:18:17;;;;;;;0.20;0.20;;;35.10;1.00;;;;;;4998526;28;20177;-78
2022/05/19 11:20:45;;;;;;;0.40;0.40;;;35.20;1.00;;;;;;5023866;28;20194;-79
2022/05/19 11:23:20;;;;;;;0.30;0.30;;;35.50;1.00;;;;;;5019625;28;20169;-80
2022/05/19 11:28:39;;;;;;;0.20;0.20;;;35.50;1.00;;;;;;5009174;28;20236;-78
2022/05/19 11:31:19;;;;;;;0.10;0.10;;;35.50;1.00;;;;;;5021232;28;20621;-80
2022/05/19 11:33:49;;;;;;;0.03;0.03;;;35.70;1.00;;;;;;5023809;28;20271;-78
2022/05/19 11:36:43;;;;;;;0.20;0.20;;;35.30;1.00;;;;;;5021043;28;20186;-81
2022/05/19 11:39:19;;;;;;;0.20;0.20;;;34.70;1.00;;;;;;5016638;28;20185;-80
2022/05/19 11:41:47;;;;;;;0.30;0.30;;;33.60;1.00;;;;;;5015410;28;20205;-81
2022/05/19 11:44:25;;;;;;;0.22;0.22;;;33.30;1.00;;;;;;5016662;28;20185;-78
2022/05/19 11:55:12;;;;;;;0.30;0.30;;;33.80;1.00;;;;;;5014072;28;20177;-76
2022/05/19 11:55:57;;;;;;;0.50;0.50;;;34.50;1.00;;;;;;5005694;28;20187;-79
2022/05/19 11:58:25;;;;;;;0.30;0.30;;;34.30;1.00;;;;;;5014964;28;20265;-79
2022/05/19 12:01:13;;;;;;;0.40;0.40;;;34.30;1.00;;;;;;5016793;28;20568;-80
2022/05/19 12:03:45;;;;;;;0.28;0.28;;;34.50;1.00;;;;;;5012576;28;20207;-80
2022/05/19 12:06:13;;;;;;;0.10;0.10;;;34.70;1.00;;;;;;5016036;28;20178;-81
2022/05/19 12:08:57;;;;;;;0.30;0.30;;;35.10;1.00;;;;;;5016683;28;20297;-80
2022/05/19 12:11:25;;;;;;;0.40;0.40;;;35.20;1.00;;;;;;5013450;28;20253;-81
2022/05/19 12:14:12;;;;;;;0.20;0.20;;;35.30;1.00;;;;;;5011176;28;20180;-83
2022/05/19 12:16:52;;;;;;;0.20;0.20;;;35.50;1.00;;;;;;5024583;28;20202;-79
2022/05/19 12:19:37;;;;;;;0.10;0.10;;;35.60;1.00;;;;;;5022592;28;20174;-79
2022/05/19 12:22:11;;;;;;;0.20;0.20;;;35.60;1.00;;;;;;4998070;28;20269;-82
2022/05/19 12:24:42;;;;;;;0.10;0.10;;;35.50;1.00;;;;;;4998933;28;20177;-79
2022/05/19 12:27:16;;;;;;;0.10;0.10;;;35.50;1.00;;;;;;4998292;28;20213;-78
2022/05/19 12:31:56;;;;;;;0.17;0.17;;;35.40;1.00;;;;;;4997686;28;20255;-79
2022/05/19 12:33:13;;;;;;;0.30;0.30;;;34.70;1.00;;;;;;4998254;28;20181;-78
2022/05/19 12:35:40;;;;;;;0.30;0.30;;;34.20;1.00;;;;;;5002702;28;20169;-79
2022/05/19 12:38:28;;;;;;;0.40;0.40;;;33.70;1.00;;;;;;5016884;28;20701;-79
2022/05/19 12:40:57;;;;;;;0.40;0.40;;;33.40;1.00;;;;;;5016646;28;20192;-79
2022/05/19 12:43:23;;;;;;;0.40;0.40;;;33.50;1.00;;;;;;5015451;28;20228;-77
2022/05/19 12:45:50;;;;;;;0.50;0.50;;;33.60;1.00;;;;;;5016468;28;20585;-75
2022/05/19 12:48:16;;;;;;;0.32;0.32;;;33.60;1.00;;;;;;5014781;28;20207;-76
2022/05/19 12:50:42;;;;;;;0.43;0.43;;;33.70;1.00;;;;;;5014132;28;20177;-78
2022/05/19 12:53:30;;;;;;;0.45;0.45;;;33.50;1.00;;;;;;5014246;28;20180;-77
2022/05/19 12:55:58;;;;;;;0.45;0.45;;;33.20;1.00;;;;;;5016409;28;20173;-77
2022/05/19 12:58:39;;;;;;;0.50;0.50;;;32.60;1.00;;;;;;5017587;28;20168;-79
2022/05/19 13:01:22;;;;;;;0.52;0.52;;;32.60;1.00;;;;;;5017134;28;20192;-78
2022/05/19 13:04:20;;;;;;;0.40;0.40;;;32.90;1.00;;;;;;5015906;28;20579;-76
2022/05/19 13:07:09;;;;;;;0.50;0.50;;;33.50;1.00;;;;;;5016356;28;20219;-78
2022/05/19 13:09:35;;;;;;;0.50;0.50;;;33.80;1.00;;;;;;5016913;28;20569;-80
2022/05/19 13:12:19;;;;;;;0.25;0.25;;;33.90;1.00;;;;;;5017432;28;20199;-80
2022/05/19 13:14:52;;;;;;;0.30;0.30;;;33.70;1.00;;;;;;5017867;28;20180;-81
2022/05/19 13:17:40;;;;;;;0.50;0.50;;;33.50;1.00;;;;;;5016080;28;20191;-79
2022/05/19 13:20:17;;;;;;;0.52;0.52;;;33.40;1.00;;;;;;5015460;28;20524;-79
2022/05/19 13:22:53;;;;;;;0.45;0.45;;;33.40;1.00;;;;;;5011321;28;20208;-77
2022/05/19 13:25:19;;;;;;;0.32;0.32;;;33.50;1.00;;;;;;5013212;28;20176;-76
2022/05/19 13:30:32;;;;;;;0.45;0.45;;;33.80;1.00;;;;;;5013797;28;20184;-77
2022/05/19 13:33:32;;;;;;;0.43;0.43;;;33.50;1.00;;;;;;5012930;28;20187;-78
2022/05/19 13:36:05;;;;;;;0.40;0.40;;;33.00;1.00;;;;;;5001350;28;20619;-78
2022/05/19 13:38:32;;;;;;;0.50;0.50;;;33.00;1.00;;;;;;5011007;28;20680;-78